Latest Weather Observations for Gelantipy

IDV60801

Issued at 8:02 am EST Monday 25 July 2016 (issued every 30 minutes, with the page automatically refreshed every 10 minutes)

About weather observations | Map of weather stations | Latest weather observations for VIC | Other Formats
Station Details ID: 084142 Name: GELANTIPY Lat: -37.22 Lon: 148.26 Height: 755.0 m
Data from the previous 72 hours. | See also: Recent months at Gelantipy
Date/Time
EST
Temp
°C
App
Temp
°C
Dew
Point
°C
Rel
Hum
%
Delta-T
°C
Wind Press
QNH
hPa
Press
MSL
hPa
Rain since
9am
mm
Dir  Spd
km/h
Gust
km/h
Spd
kts
Gust
kts
25/08:00am 3.1 -0.8 -1.4 72 1.7 NE 9 17 5 9 1006.4 1007.3 0.0
25/07:30am 2.3 -1.7 -2.4 71 1.7 NNW 9 15 5 8 1006.2 1007.0 0.0
25/07:00am 3.0 -0.4 -2.1 69 1.9 NNW 6 11 3 6 1006.0 1006.8 0.0
25/06:30am 3.3 -1.0 -1.8 69 1.9 NNW 11 19 6 10 1005.3 1006.2 0.0
25/06:00am 3.4 -1.3 -1.5 70 1.9 NNW 13 24 7 13 1005.1 1006.0 0.0
25/05:30am 3.5 -1.6 -1.6 69 1.9 NNW 15 26 8 14 1004.9 1005.7 0.0
25/05:00am 3.0 -2.1 -1.9 70 1.8 N 15 20 8 11 1004.7 1005.5 0.0
25/04:30am 2.3 -1.3 -2.0 73 1.6 NNE 7 11 4 6 1004.6 1005.4 0.0
25/04:00am 2.5 -1.4 -1.5 75 1.5 NNE 9 9 5 5 1004.4 1005.2 0.0
25/03:30am 3.1 -0.3 -2.2 68 2.0 NNE 6 9 3 5 1004.1 1005.0 0.0
25/03:00am 3.5 -0.9 -2.2 66 2.1 NNW 11 17 6 9 1004.1 1005.0 0.0
25/02:30am 3.9 -0.4 -1.7 67 2.1 NW 11 19 6 10 1004.6 1005.4 0.0
25/02:00am 3.8 -1.5 -0.6 73 1.7 N 17 28 9 15 1004.3 1005.1 0.0
25/01:30am 3.4 -1.1 -0.2 77 1.4 N 13 20 7 11 1004.6 1005.4 0.0
25/01:00am 3.6 -1.6 -0.2 76 1.5 NNE 17 22 9 12 1004.7 1005.5 0.0
25/12:30am 4.1 0.0 -0.3 73 1.7 N 11 17 6 9 1004.5 1005.3 0.0
25/12:00am 3.3 -0.8 -0.5 76 1.5 N 11 13 6 7 1004.5 1005.3 0.0
 
Date/Time
EST
Temp
°C
App
Temp
°C
Dew
Point
°C
Rel
Hum
%
Delta-T
°C
Wind Press
QNH
hPa
Press
MSL
hPa
Rain since
9am
mm
Dir  Spd
km/h
Gust
km/h
Spd
kts
Gust
kts
24/11:30pm 3.2 -1.3 -0.4 77 1.4 NNE 13 19 7 10 1004.6 1005.4 0.0
24/11:00pm 2.7 -2.6 -0.4 80 1.2 N 17 20 9 11 1004.8 1005.6 0.0
24/10:30pm 2.8 -2.5 -0.3 80 1.2 N 17 20 9 11 1004.9 1005.7 0.0
24/10:00pm 1.9 -3.0 -0.5 84 0.9 NNE 15 17 8 9 1005.7 1006.5 0.0
24/09:30pm 2.1 -3.2 -0.5 83 1.0 NNE 17 22 9 12 1005.9 1006.7 0.0
24/09:00pm 2.2 -2.7 -0.7 81 1.1 N 15 20 8 11 1006.0 1006.8 0.0
24/08:30pm 2.2 -2.3 -0.5 82 1.0 N 13 17 7 9 1006.1 1006.9 0.0
24/08:00pm 2.0 -2.2 -0.7 82 1.0 NNE 11 13 6 7 1006.4 1007.3 0.0
24/07:30pm 2.6 -2.0 -0.7 79 1.3 NE 13 17 7 9 1006.2 1007.0 0.0
24/07:00pm 2.3 -2.2 -0.4 82 1.0 N 13 17 7 9 1006.5 1007.4 0.0
24/06:30pm 2.4 -1.7 -0.4 82 1.1 NNE 11 15 6 8 1006.7 1007.6 0.0
24/06:00pm 2.9 -0.8 -0.2 80 1.2 NNE 9 13 5 7 1006.5 1007.4 0.0
24/05:30pm 3.8 0.0 -0.6 73 1.7 N 9 15 5 8 1006.4 1007.3 0.0
24/05:00pm 3.7 -0.9 -1.1 71 1.9 N 13 19 7 10 1006.5 1007.4 0.0
24/04:30pm 4.5 0.2 -1.3 66 2.2 NNW 11 17 6 9 1006.5 1007.4 0.0
24/04:00pm 5.0 -0.5 -2.1 60 2.7 NNE 17 26 9 14 1006.3 1007.2 0.0
24/03:30pm 6.3 0.9 -1.6 57 3.1 NW 17 28 9 15 1006.7 1007.6 0.0
24/03:00pm 6.2 0.7 -1.9 56 3.1 NNW 17 26 9 14 1007.1 1007.9 0.0
24/02:30pm 6.5 1.1 -1.2 58 3.0 NW 17 30 9 16 1007.3 1008.1 0.0
24/02:00pm 6.6 0.4 -2.8 51 3.6 WNW 20 35 11 19 1007.5 1008.4 0.0
24/01:30pm 6.5 0.0 -2.1 54 3.3 NW 22 35 12 19 1007.9 1008.8 0.0
24/01:00pm 6.2 1.0 -2.4 54 3.3 NNW 15 28 8 15 1008.5 1009.3 0.0
24/12:30pm 5.3 -0.8 -2.5 57 2.9 NNW 20 32 11 17 1009.1 1010.0 0.0
24/12:00pm 5.1 -0.2 -3.4 54 3.1 NNW 15 32 8 17 1009.5 1010.4 0.0
24/11:30am 4.9 -0.6 -2.2 60 2.7 NNW 17 26 9 14 1010.2 1011.1 0.0
24/11:00am 5.3 -0.7 -1.6 61 2.7 NNW 20 28 11 15 1010.5 1011.4 0.0
24/10:30am 4.6 -0.1 -2.0 62 2.5 NW 13 22 7 12 1010.6 1011.5 0.0
24/10:00am 4.9 -0.3 -2.9 57 2.9 NW 15 24 8 13 1010.6 1011.5 0.0
24/09:30am 4.3 -1.7 -2.8 60 2.6 WNW 19 32 10 17 1010.6 1011.5 0.0
24/09:00am 3.8 -2.2 -3.2 60 2.6 NW 19 33 10 18 1010.6 1011.5 1.2
24/08:30am 3.2 -1.7 -3.4 62 2.4 NNW 13 20 7 11 1010.5 1011.4 1.2
24/08:00am 1.9 -2.7 -4.0 65 2.2 NW 11 13 6 7 1010.3 1011.2 1.2
24/07:30am 1.1 -4.2 -3.9 69 1.8 NW 15 20 8 11 1009.6 1010.6 1.2
24/07:00am 1.1 -3.5 -3.7 70 1.7 NW 11 13 6 7 1009.7 1010.7 1.2
24/06:30am 1.9 -3.1 -4.0 65 2.2 NNW 13 24 7 13 1009.6 1010.6 1.2
24/06:00am 1.7 -2.1 -3.8 67 2.0 NNW 7 11 4 6 1009.7 1010.7 1.2
24/05:30am 1.4 -2.2 -3.7 69 1.9 SE 6 9 3 5 1009.6 1010.6 1.2
24/05:00am 1.5 -3.0 -3.6 69 1.9 WNW 11 17 6 9 1009.6 1010.6 1.2
24/04:30am 1.4 -3.1 -3.3 71 1.7 WNW 11 19 6 10 1009.5 1010.4 1.2
24/04:00am 1.2 -2.4 -3.7 70 1.8 N 6 9 3 5 1009.4 1010.3 1.2
24/03:30am 2.1 -2.0 -3.4 67 1.9 WNW 9 17 5 9 1009.5 1010.4 1.2
24/03:00am 2.2 -1.9 -3.3 67 2.0 WNW 9 13 5 7 1009.5 1010.4 1.2
24/02:30am 2.0 -2.1 -2.9 70 1.8 W 9 15 5 8 1009.6 1010.6 1.2
24/02:00am 2.2 -1.9 -2.7 70 1.8 WNW 9 17 5 9 1009.6 1010.6 1.2
24/01:30am 2.2 -2.2 -2.7 70 1.8 W 11 17 6 9 1009.7 1010.7 1.2
24/01:00am 2.4 -2.4 -2.7 69 1.9 WSW 13 19 7 10 1009.6 1010.6 1.2
24/12:30am 2.6 -2.9 -2.1 71 1.7 W 17 26 9 14 1009.7 1010.7 1.2
24/12:00am 2.8 -3.3 -2.1 70 1.8 W 20 28 11 15 1009.6 1010.6 1.2
 
Date/Time
EST
Temp
°C
App
Temp
°C
Dew
Point
°C
Rel
Hum
%
Delta-T
°C
Wind Press
QNH
hPa
Press
MSL
hPa
Rain since
9am
mm
Dir  Spd
km/h
Gust
km/h
Spd
kts
Gust
kts
23/11:30pm 2.7 -3.2 -2.2 70 1.8 W 19 26 10 14 1009.6 1010.6 1.2
23/11:00pm 3.1 -3.3 -2.0 69 1.9 W 22 30 12 16 1009.4 1010.3 1.2
23/10:30pm 3.3 -3.2 -2.2 67 2.0 W 22 28 12 15 1009.3 1010.2 1.2
23/10:00pm 3.2 -3.6 -2.1 68 2.0 W 24 39 13 21 1009.1 1010.0 1.2
23/09:30pm 3.4 -3.4 -1.9 68 2.0 W 24 35 13 19 1009.0 1009.9 1.2
23/09:00pm 3.6 -2.5 -2.6 64 2.3 W 20 30 11 16 1008.8 1009.7 1.2
23/08:30pm 4.0 -4.1 -2.8 61 2.5 W 30 50 16 27 1007.9 1008.8 1.2
23/08:26pm 4.1 -4.0 -3.0 60 2.6 W 30 50 16 27 1007.9 1008.8 1.2
23/08:00pm 4.2 -3.5 -3.1 59 2.7 W 28 39 15 21 1007.5 1008.4 1.2
23/07:30pm 4.2 -4.0 -3.8 56 2.9 W 30 50 16 27 1007.2 1008.0 1.2
23/07:15pm 4.2 -3.6 -4.0 55 2.9 W 28 46 15 25 1006.9 1007.8 1.2
23/07:00pm 4.2 -3.7 -4.3 54 3.0 W 28 43 15 23 1006.6 1007.5 1.2
23/06:53pm 4.1 -3.8 -4.4 54 3.0 W 28 46 15 25 1006.5 1007.4 1.2
23/06:30pm 4.2 -3.3 -4.5 53 3.1 W 26 46 14 25 1006.0 1006.8 1.2
23/06:13pm 4.2 -3.7 -4.3 54 3.0 W 28 46 15 25 1005.7 1006.5 1.2
23/06:00pm 4.1 -3.8 -4.6 53 3.1 W 28 44 15 24 1005.4 1006.3 1.2
23/05:30pm 4.0 -3.5 -4.4 54 3.0 W 26 44 14 24 1004.7 1005.5 1.2
23/05:00pm 4.0 -3.8 -4.2 55 2.9 W 28 50 15 27 1004.5 1005.3 1.2
23/04:56pm 4.1 -3.8 -4.4 54 3.0 WNW 28 50 15 27 1004.5 1005.3 1.2
23/04:30pm 4.8 -2.6 -4.0 53 3.2 W 26 39 14 21 1004.0 1004.9 1.2
23/04:11pm 5.2 -2.7 -4.6 49 3.5 W 28 48 15 26 1003.7 1004.5 1.2
23/04:00pm 5.2 -1.5 -3.8 52 3.3 W 22 41 12 22 1003.6 1004.4 1.2
23/03:49pm 5.1 -3.1 -3.9 52 3.3 W 30 48 16 26 1003.5 1004.3 1.2
23/03:30pm 5.2 -1.8 -3.8 52 3.3 W 24 39 13 21 1003.2 1004.0 1.2
23/03:00pm 5.4 -2.5 -4.7 48 3.6 W 28 54 15 29 1002.4 1003.2 1.2
23/02:30pm 5.2 -5.2 -5.2 47 3.7 W 41 61 22 33 1002.0 1002.8 1.2
23/02:22pm 5.3 -3.4 -5.4 46 3.8 WSW 32 54 17 29 1001.9 1002.7 1.2
23/02:00pm 5.1 -4.1 -4.4 50 3.4 WSW 35 50 19 27 1001.8 1002.6 1.2
23/01:31pm 5.7 -2.2 -1.9 58 2.9 W 30 48 16 26 1001.3 1002.1 1.2
23/01:30pm 5.8 -2.5 -1.8 58 2.9 W 32 48 17 26 1001.2 1002.0 1.2
23/01:16pm 5.8 -1.5 -2.5 55 3.1 SW 26 46 14 25 1001.1 1001.9 1.2
23/01:00pm 5.2 -0.9 -2.4 58 2.9 WSW 20 37 11 20 1001.0 1001.8 1.2
23/12:38pm 4.4 -3.6 -2.7 60 2.6 WSW 30 54 16 29 1000.8 1001.6 1.2
23/12:30pm 4.2 -2.9 -1.0 69 2.0 WSW 26 35 14 19 1000.7 1001.5 1.2
23/12:12pm 3.7 -3.7 -0.5 74 1.6 WSW 28 52 15 28 1000.7 1001.5 1.2
23/12:00pm 4.4 -1.5 1.9 84 1.1 WSW 22 32 12 17 1000.5 1001.2 1.2
23/11:30am 2.9 -4.5 2.0 94 0.4 SW 30 44 16 24 1000.1 1000.8 1.2
23/11:00am 3.4 -4.1 1.3 86 0.9 WSW 30 56 16 30 999.8 1000.6 0.2
23/10:30am 6.6 -1.4 0.3 64 2.6 W 32 54 17 29 998.8 999.5 0.0
23/10:00am 6.8 -0.4 0.5 64 2.6 W 28 50 15 27 998.2 998.9 0.0
23/09:59am 6.9 -0.4 -0.1 61 2.9 W 28 50 15 27 998.2 998.9 0.0
23/09:30am 6.6 -0.1 1.3 69 2.2 W 26 35 14 19 998.0 998.7 0.0
23/09:00am 5.9 -2.1 0.3 67 2.3 W 32 52 17 28 997.6 998.3 7.2
23/08:30am 5.5 -1.8 0.1 68 2.2 W 28 46 15 25 996.8 997.5 7.2
23/08:12am 5.3 -2.0 -0.1 68 2.2 W 28 46 15 25 996.6 997.3 7.2
23/08:00am 5.1 -2.2 0.3 71 2.0 W 28 39 15 21 996.4 997.1 7.2
23/07:34am 4.7 -2.6 -0.1 71 1.9 W 28 46 15 25 996.1 996.7 7.2
23/07:30am 4.8 -2.5 0.0 71 1.9 W 28 39 15 21 995.9 996.5 7.2
23/07:14am 5.1 -2.2 -0.3 68 2.1 W 28 50 15 27 995.4 996.1 7.2
23/07:00am 5.1 -2.6 -0.1 69 2.1 W 30 46 16 25 995.2 995.9 7.2
23/06:30am 5.0 -3.7 -0.2 69 2.1 W 35 63 19 34 994.6 995.2 7.2
23/06:18am 5.2 -3.1 -0.4 67 2.2 W 33 61 18 33 994.0 994.7 7.2
23/06:00am 5.2 -1.8 -0.2 68 2.2 WNW 26 44 14 24 993.4 994.0 7.2
23/05:30am 5.1 -1.1 -0.3 68 2.1 WNW 22 39 12 21 993.0 993.6 7.2
23/05:00am 5.0 -2.0 -0.2 69 2.1 NW 26 41 14 22 992.0 992.6 7.2
23/04:30am 4.7 -2.1 0.5 74 1.7 NW 26 52 14 28 991.8 992.4 7.2
23/04:24am 5.1 -2.2 0.1 70 2.0 NW 28 52 15 28 991.7 992.3 7.2
23/04:00am 4.9 -0.6 0.9 75 1.7 NW 19 28 10 15 991.3 991.9 7.2
23/03:30am 4.7 -2.0 1.6 80 1.3 NW 26 48 14 26 991.6 992.1 7.2
23/03:10am 5.2 -2.2 2.0 80 1.3 WNW 30 74 16 40 992.1 992.7 7.2
23/03:00am 5.2 -1.3 2.4 82 1.2 WNW 26 44 14 24 991.8 992.4 7.2
23/02:51am 5.4 -1.2 2.2 80 1.4 NW 26 44 14 24 991.8 992.4 7.2
23/02:30am 5.6 1.1 2.3 79 1.4 NW 15 22 8 12 991.3 991.9 7.2
23/02:00am 5.7 0.5 3.5 86 1.0 W 20 32 11 17 991.7 992.3 7.2
23/01:30am 6.9 1.6 3.0 76 1.7 NW 20 37 11 20 991.9 992.5 6.0
23/01:00am 6.9 3.4 3.3 78 1.6 NNW 11 20 6 11 991.6 992.1 6.0
23/12:30am 6.8 3.0 4.1 83 1.2 NNW 13 26 7 14 992.2 992.8 6.0
23/12:00am 6.1 5.1 5.7 97 0.2 CALM 0 0 0 0 992.7 993.4 6.0
 
Date/Time
EST
Temp
°C
App
Temp
°C
Dew
Point
°C
Rel
Hum
%
Delta-T
°C
Wind Press
QNH
hPa
Press
MSL
hPa
Rain since
9am
mm
Dir  Spd
km/h
Gust
km/h
Spd
kts
Gust
kts
22/11:30pm 6.4 3.3 5.5 94 0.4 WSW 11 17 6 9 993.5 994.1 5.6
22/11:00pm 7.1 3.1 4.9 86 1.0 WSW 15 24 8 13 993.9 994.6 5.2
22/10:30pm 8.2 3.2 3.5 72 2.1 WNW 19 30 10 16 993.9 994.6 5.0
22/10:00pm 8.4 4.3 2.4 66 2.7 WNW 13 26 7 14 994.2 994.9 5.0
22/09:30pm 8.5 4.4 2.3 65 2.7 NNW 13 22 7 12 994.6 995.2 5.0
22/09:00pm 7.9 4.6 2.2 67 2.5 WNW 9 15 5 8 995.0 995.7 5.0
22/08:30pm 8.5 4.8 2.5 66 2.6 W 11 19 6 10 995.3 996.0 5.0
22/08:00pm 9.0 4.2 2.6 64 2.9 NW 17 28 9 15 995.6 996.3 5.0
22/07:30pm 8.9 4.0 2.3 63 2.9 NW 17 28 9 15 995.9 996.5 5.0
22/07:00pm 8.4 4.3 2.4 66 2.7 WNW 13 20 7 11 996.1 996.7 5.0
22/06:30pm 9.1 4.6 2.0 61 3.1 WNW 15 24 8 13 996.1 996.7 5.0
22/06:00pm 10.0 4.4 1.4 55 3.8 WNW 20 35 11 19 995.9 996.5 5.0
22/05:30pm 10.7 4.5 2.0 55 3.9 WNW 24 39 13 21 995.2 995.9 5.0
22/05:06pm 11.4 4.6 2.9 56 3.9 WNW 28 48 15 26 994.9 995.5 5.0
22/05:00pm 11.4 5.2 4.4 62 3.3 W 26 41 14 22 994.8 995.4 5.0
22/04:30pm 12.1 5.9 6.2 67 2.9 WNW 28 48 15 26 994.1 994.8 5.0
22/04:12pm 12.0 6.0 6.9 71 2.5 NW 28 46 15 25 994.4 995.0 5.0
22/04:00pm 11.4 5.4 6.9 74 2.3 NW 28 39 15 21 994.4 995.0 5.0
22/03:30pm 10.1 5.4 7.9 86 1.1 WNW 22 37 12 20 995.1 995.8 4.8
22/03:00pm 11.1 6.4 7.6 79 1.8 WNW 22 35 12 19 995.6 996.3 4.2
22/02:30pm 11.8 5.0 9.4 85 1.3 W 35 57 19 31 996.1 996.7 3.8
22/02:19pm 12.7 7.7 11.1 90 0.9 WSW 28 48 15 26 996.0 996.6 3.6
22/02:00pm 13.5 10.4 11.7 89 1.0 W 19 32 10 17 994.6 995.2 3.0
22/01:30pm 13.8 13.2 12.4 91 0.8 W 7 17 4 9 994.9 995.5 2.4
22/01:00pm 13.8 14.6 12.7 93 0.6 CALM 0 0 0 0 994.7 995.3 1.8
22/12:30pm 14.3 10.9 11.3 82 1.7 NW 20 30 11 16 995.5 996.2 1.2
22/12:00pm 15.7 9.3 10.7 72 2.8 NW 35 54 19 29 996.0 996.6 0.6
22/11:38am 15.5 10.4 10.5 72 2.7 NW 28 63 15 34 996.5 997.2 0.6
22/11:30am 15.2 11.4 11.2 77 2.2 NNW 22 39 12 21 996.8 997.5 0.4
22/11:24am 15.3 10.3 11.1 76 2.3 NNW 28 48 15 26 996.9 997.6 0.4
22/11:00am 14.6 10.4 11.0 79 2.0 NNW 24 39 13 21 997.3 998.0 0.4
22/10:45am 14.5 9.5 10.9 79 2.0 NNW 28 50 15 27 997.5 998.2 0.2
22/10:30am 15.1 11.3 11.1 77 2.2 NNW 22 33 12 18 997.8 998.5 0.0
22/10:00am 16.3 11.3 10.8 70 3.1 N 28 43 15 23 998.3 999.0 0.0
22/09:30am 15.3 10.9 10.5 73 2.6 N 24 37 13 20 998.9 999.6 0.0
22/09:00am 15.5 9.7 9.6 68 3.2 N 30 43 16 23 999.2 999.9 0.0
22/08:30am 14.7 7.4 8.6 67 3.2 N 37 59 20 32 999.1 999.8 0.0
22/08:02am 14.1 7.4 8.1 67 3.1 NNE 33 52 18 28 999.5 1000.3 0.0

Other Formats:

Comma delimited format used in spreadsheet applications
http://www.bom.gov.au/fwo/IDV60801/IDV60801.94913.axf

JavaScript Object Notation format (JSON) in row-major order
http://www.bom.gov.au/fwo/IDV60801/IDV60801.94913.json